sensor_id;sensor_type;location;lat;lon;timestamp;P1;durP1;ratioP1;P2;durP2;ratioP2
54388;SDS011;40975;50.390;8.640;2023-05-07T00:00:43;1.83;;;1.50;;
54388;SDS011;40975;50.390;8.640;2023-05-07T00:03:08;3.25;;;1.33;;
54388;SDS011;40975;50.390;8.640;2023-05-07T00:05:34;3.88;;;1.30;;
54388;SDS011;40975;50.390;8.640;2023-05-07T00:07:59;5.32;;;1.40;;
54388;SDS011;40975;50.390;8.640;2023-05-07T00:10:25;3.15;;;1.58;;
54388;SDS011;40975;50.390;8.640;2023-05-07T00:12:50;3.25;;;1.30;;
54388;SDS011;40975;50.390;8.640;2023-05-07T00:15:16;1.77;;;1.42;;
54388;SDS011;40975;50.390;8.640;2023-05-07T00:17:41;3.33;;;1.55;;
54388;SDS011;40975;50.390;8.640;2023-05-07T00:20:06;3.58;;;1.50;;
54388;SDS011;40975;50.390;8.640;2023-05-07T00:22:32;2.92;;;1.48;;
54388;SDS011;40975;50.390;8.640;2023-05-07T00:24:58;3.20;;;1.48;;
54388;SDS011;40975;50.390;8.640;2023-05-07T00:27:24;2.90;;;1.60;;
54388;SDS011;40975;50.390;8.640;2023-05-07T00:29:49;1.65;;;1.55;;
54388;SDS011;40975;50.390;8.640;2023-05-07T00:32:15;1.73;;;1.40;;
54388;SDS011;40975;50.390;8.640;2023-05-07T00:34:40;3.83;;;1.67;;
54388;SDS011;40975;50.390;8.640;2023-05-07T00:37:06;2.88;;;1.70;;
54388;SDS011;40975;50.390;8.640;2023-05-07T00:39:34;4.43;;;1.60;;
54388;SDS011;40975;50.390;8.640;2023-05-07T00:42:00;2.13;;;1.65;;
54388;SDS011;40975;50.390;8.640;2023-05-07T00:44:26;3.70;;;1.58;;
54388;SDS011;40975;50.390;8.640;2023-05-07T00:46:52;3.17;;;1.65;;
54388;SDS011;40975;50.390;8.640;2023-05-07T00:49:18;2.13;;;1.02;;
54388;SDS011;40975;50.390;8.640;2023-05-07T00:51:44;2.65;;;1.50;;
54388;SDS011;40975;50.390;8.640;2023-05-07T00:54:10;7.07;;;2.30;;
54388;SDS011;40975;50.390;8.640;2023-05-07T00:56:36;1.58;;;1.20;;
54388;SDS011;40975;50.390;8.640;2023-05-07T00:59:02;1.63;;;1.40;;
54388;SDS011;40975;50.390;8.640;2023-05-07T01:01:28;1.75;;;1.40;;
54388;SDS011;40975;50.390;8.640;2023-05-07T01:03:53;2.30;;;1.33;;
54388;SDS011;40975;50.390;8.640;2023-05-07T01:06:20;1.17;;;1.05;;
54388;SDS011;40975;50.390;8.640;2023-05-07T01:08:48;3.78;;;1.33;;
54388;SDS011;40975;50.390;8.640;2023-05-07T01:11:15;1.35;;;1.25;;
54388;SDS011;40975;50.390;8.640;2023-05-07T01:13:42;3.47;;;1.17;;
54388;SDS011;40975;50.390;8.640;2023-05-07T01:16:08;1.23;;;0.95;;
54388;SDS011;40975;50.390;8.640;2023-05-07T01:18:34;2.22;;;1.00;;
54388;SDS011;40975;50.390;8.640;2023-05-07T01:21:00;4.07;;;1.50;;
54388;SDS011;40975;50.390;8.640;2023-05-07T01:23:28;5.70;;;1.92;;
54388;SDS011;40975;50.390;8.640;2023-05-07T01:25:55;2.30;;;1.33;;
54388;SDS011;40975;50.390;8.640;2023-05-07T01:28:23;2.70;;;1.50;;
54388;SDS011;40975;50.390;8.640;2023-05-07T01:30:52;2.78;;;1.33;;
54388;SDS011;40975;50.390;8.640;2023-05-07T01:33:21;1.17;;;1.05;;
54388;SDS011;40975;50.390;8.640;2023-05-07T01:35:50;3.88;;;1.17;;
54388;SDS011;40975;50.390;8.640;2023-05-07T01:38:18;1.60;;;1.30;;
54388;SDS011;40975;50.390;8.640;2023-05-07T01:40:44;3.75;;;1.42;;
54388;SDS011;40975;50.390;8.640;2023-05-07T01:43:10;1.67;;;1.08;;
54388;SDS011;40975;50.390;8.640;2023-05-07T01:45:36;1.35;;;1.17;;
54388;SDS011;40975;50.390;8.640;2023-05-07T01:48:03;2.60;;;1.70;;
54388;SDS011;40975;50.390;8.640;2023-05-07T01:50:29;2.88;;;1.20;;
54388;SDS011;40975;50.390;8.640;2023-05-07T01:52:56;2.97;;;1.23;;
54388;SDS011;40975;50.390;8.640;2023-05-07T01:55:22;4.45;;;1.40;;
54388;SDS011;40975;50.390;8.640;2023-05-07T01:57:48;1.92;;;1.20;;
54388;SDS011;40975;50.390;8.640;2023-05-07T02:00:14;1.90;;;1.10;;
54388;SDS011;40975;50.390;8.640;2023-05-07T02:02:43;1.45;;;1.20;;
54388;SDS011;40975;50.390;8.640;2023-05-07T02:05:20;1.45;;;1.17;;
54388;SDS011;40975;50.390;8.640;2023-05-07T02:07:51;3.42;;;1.30;;
54388;SDS011;40975;50.390;8.640;2023-05-07T02:10:16;3.70;;;1.40;;
54388;SDS011;40975;50.390;8.640;2023-05-07T02:12:42;3.72;;;1.40;;
54388;SDS011;40975;50.390;8.640;2023-05-07T02:15:08;1.70;;;1.35;;
54388;SDS011;40975;50.390;8.640;2023-05-07T02:17:34;1.95;;;1.45;;
54388;SDS011;40975;50.390;8.640;2023-05-07T02:20:00;4.70;;;1.20;;
54388;SDS011;40975;50.390;8.640;2023-05-07T02:22:25;1.90;;;1.45;;
54388;SDS011;40975;50.390;8.640;2023-05-07T02:24:51;1.40;;;1.30;;
54388;SDS011;40975;50.390;8.640;2023-05-07T02:27:16;2.55;;;1.55;;
54388;SDS011;40975;50.390;8.640;2023-05-07T02:29:43;2.35;;;1.38;;
54388;SDS011;40975;50.390;8.640;2023-05-07T02:32:08;1.95;;;1.33;;
54388;SDS011;40975;50.390;8.640;2023-05-07T02:34:34;1.38;;;1.23;;
54388;SDS011;40975;50.390;8.640;2023-05-07T02:36:59;2.40;;;1.40;;
54388;SDS011;40975;50.390;8.640;2023-05-07T02:39:25;1.20;;;1.00;;
54388;SDS011;40975;50.390;8.640;2023-05-07T02:41:51;2.15;;;1.10;;
54388;SDS011;40975;50.390;8.640;2023-05-07T02:44:16;4.20;;;1.75;;
54388;SDS011;40975;50.390;8.640;2023-05-07T02:46:43;2.13;;;1.38;;
54388;SDS011;40975;50.390;8.640;2023-05-07T02:49:11;1.38;;;1.27;;
54388;SDS011;40975;50.390;8.640;2023-05-07T02:51:36;3.08;;;1.67;;
54388;SDS011;40975;50.390;8.640;2023-05-07T02:54:06;2.95;;;1.35;;
54388;SDS011;40975;50.390;8.640;2023-05-07T02:56:32;2.13;;;1.27;;
54388;SDS011;40975;50.390;8.640;2023-05-07T02:58:57;4.47;;;1.35;;
54388;SDS011;40975;50.390;8.640;2023-05-07T03:01:26;2.22;;;1.40;;
54388;SDS011;40975;50.390;8.640;2023-05-07T03:04:00;1.75;;;1.50;;
54388;SDS011;40975;50.390;8.640;2023-05-07T03:06:25;2.03;;;1.40;;
54388;SDS011;40975;50.390;8.640;2023-05-07T03:08:51;2.80;;;1.60;;
54388;SDS011;40975;50.390;8.640;2023-05-07T03:11:16;3.08;;;1.35;;
54388;SDS011;40975;50.390;8.640;2023-05-07T03:13:42;1.75;;;1.35;;
54388;SDS011;40975;50.390;8.640;2023-05-07T03:16:07;4.60;;;2.13;;
54388;SDS011;40975;50.390;8.640;2023-05-07T03:18:32;3.08;;;1.27;;
54388;SDS011;40975;50.390;8.640;2023-05-07T03:20:58;3.22;;;1.30;;
54388;SDS011;40975;50.390;8.640;2023-05-07T03:23:23;1.80;;;1.30;;
54388;SDS011;40975;50.390;8.640;2023-05-07T03:25:48;2.35;;;1.52;;
54388;SDS011;40975;50.390;8.640;2023-05-07T03:28:14;3.33;;;1.48;;
54388;SDS011;40975;50.390;8.640;2023-05-07T03:30:46;3.47;;;1.40;;
54388;SDS011;40975;50.390;8.640;2023-05-07T03:33:11;1.60;;;1.38;;
54388;SDS011;40975;50.390;8.640;2023-05-07T03:35:37;2.30;;;1.52;;
54388;SDS011;40975;50.390;8.640;2023-05-07T03:38:02;2.03;;;1.50;;
54388;SDS011;40975;50.390;8.640;2023-05-07T03:40:30;3.00;;;1.75;;
54388;SDS011;40975;50.390;8.640;2023-05-07T03:42:56;3.38;;;1.80;;
54388;SDS011;40975;50.390;8.640;2023-05-07T03:45:24;3.28;;;1.67;;
54388;SDS011;40975;50.390;8.640;2023-05-07T03:47:58;1.80;;;1.45;;
54388;SDS011;40975;50.390;8.640;2023-05-07T03:50:24;2.10;;;1.48;;
54388;SDS011;40975;50.390;8.640;2023-05-07T03:52:49;3.05;;;1.60;;
54388;SDS011;40975;50.390;8.640;2023-05-07T03:55:17;7.22;;;1.75;;
54388;SDS011;40975;50.390;8.640;2023-05-07T03:57:48;4.95;;;1.63;;
54388;SDS011;40975;50.390;8.640;2023-05-07T04:00:13;2.53;;;1.67;;
54388;SDS011;40975;50.390;8.640;2023-05-07T04:02:48;1.85;;;1.60;;
54388;SDS011;40975;50.390;8.640;2023-05-07T04:05:17;1.65;;;1.42;;
54388;SDS011;40975;50.390;8.640;2023-05-07T04:07:45;3.95;;;1.42;;
54388;SDS011;40975;50.390;8.640;2023-05-07T04:10:13;1.95;;;1.40;;
54388;SDS011;40975;50.390;8.640;2023-05-07T04:12:42;4.68;;;2.15;;
54388;SDS011;40975;50.390;8.640;2023-05-07T04:15:08;2.28;;;1.80;;
54388;SDS011;40975;50.390;8.640;2023-05-07T04:17:35;8.25;;;1.80;;
54388;SDS011;40975;50.390;8.640;2023-05-07T04:20:00;3.63;;;1.63;;
54388;SDS011;40975;50.390;8.640;2023-05-07T04:22:27;2.13;;;1.77;;
54388;SDS011;40975;50.390;8.640;2023-05-07T04:24:53;3.90;;;1.60;;
54388;SDS011;40975;50.390;8.640;2023-05-07T04:27:18;3.42;;;1.48;;
54388;SDS011;40975;50.390;8.640;2023-05-07T04:29:43;3.90;;;2.00;;
54388;SDS011;40975;50.390;8.640;2023-05-07T04:32:12;3.30;;;1.65;;
54388;SDS011;40975;50.390;8.640;2023-05-07T04:34:39;3.47;;;1.83;;
54388;SDS011;40975;50.390;8.640;2023-05-07T04:37:04;3.33;;;1.77;;
54388;SDS011;40975;50.390;8.640;2023-05-07T04:39:30;2.17;;;1.73;;
54388;SDS011;40975;50.390;8.640;2023-05-07T04:41:56;3.55;;;2.03;;
54388;SDS011;40975;50.390;8.640;2023-05-07T04:44:22;1.88;;;1.48;;
54388;SDS011;40975;50.390;8.640;2023-05-07T04:46:48;2.33;;;1.40;;
54388;SDS011;40975;50.390;8.640;2023-05-07T04:49:13;2.58;;;2.20;;
54388;SDS011;40975;50.390;8.640;2023-05-07T04:51:38;2.08;;;1.38;;
54388;SDS011;40975;50.390;8.640;2023-05-07T04:54:08;2.30;;;2.00;;
54388;SDS011;40975;50.390;8.640;2023-05-07T04:56:34;2.05;;;1.75;;
54388;SDS011;40975;50.390;8.640;2023-05-07T04:59:00;4.18;;;2.30;;
54388;SDS011;40975;50.390;8.640;2023-05-07T05:01:27;2.03;;;1.85;;
54388;SDS011;40975;50.390;8.640;2023-05-07T05:03:52;2.50;;;2.03;;
54388;SDS011;40975;50.390;8.640;2023-05-07T05:06:19;4.70;;;2.00;;
54388;SDS011;40975;50.390;8.640;2023-05-07T05:08:44;3.85;;;1.98;;
54388;SDS011;40975;50.390;8.640;2023-05-07T05:11:09;4.60;;;1.85;;
54388;SDS011;40975;50.390;8.640;2023-05-07T05:13:35;3.63;;;2.25;;
54388;SDS011;40975;50.390;8.640;2023-05-07T05:16:07;2.17;;;1.98;;
54388;SDS011;40975;50.390;8.640;2023-05-07T05:18:32;4.43;;;2.53;;
54388;SDS011;40975;50.390;8.640;2023-05-07T05:20:58;3.80;;;2.22;;
54388;SDS011;40975;50.390;8.640;2023-05-07T05:23:24;2.47;;;2.17;;
54388;SDS011;40975;50.390;8.640;2023-05-07T05:25:49;2.42;;;2.00;;
54388;SDS011;40975;50.390;8.640;2023-05-07T05:28:15;2.95;;;2.05;;
54388;SDS011;40975;50.390;8.640;2023-05-07T05:30:40;2.42;;;1.77;;
54388;SDS011;40975;50.390;8.640;2023-05-07T05:33:07;4.05;;;1.92;;
54388;SDS011;40975;50.390;8.640;2023-05-07T05:35:32;2.70;;;2.08;;
54388;SDS011;40975;50.390;8.640;2023-05-07T05:38:01;2.60;;;2.20;;
54388;SDS011;40975;50.390;8.640;2023-05-07T05:40:27;4.60;;;2.92;;
54388;SDS011;40975;50.390;8.640;2023-05-07T05:42:53;3.15;;;2.58;;
54388;SDS011;40975;50.390;8.640;2023-05-07T05:45:18;2.55;;;2.20;;
54388;SDS011;40975;50.390;8.640;2023-05-07T05:47:44;4.38;;;2.50;;
54388;SDS011;40975;50.390;8.640;2023-05-07T05:50:10;3.92;;;2.30;;
54388;SDS011;40975;50.390;8.640;2023-05-07T05:52:35;4.00;;;2.50;;
54388;SDS011;40975;50.390;8.640;2023-05-07T05:55:01;5.18;;;2.72;;
54388;SDS011;40975;50.390;8.640;2023-05-07T05:57:26;4.15;;;2.92;;
54388;SDS011;40975;50.390;8.640;2023-05-07T05:59:52;3.35;;;2.42;;
54388;SDS011;40975;50.390;8.640;2023-05-07T06:02:17;4.55;;;2.78;;
54388;SDS011;40975;50.390;8.640;2023-05-07T06:04:43;5.05;;;3.30;;
54388;SDS011;40975;50.390;8.640;2023-05-07T06:07:10;5.22;;;3.00;;
54388;SDS011;40975;50.390;8.640;2023-05-07T06:09:36;4.03;;;2.88;;
54388;SDS011;40975;50.390;8.640;2023-05-07T06:12:02;4.38;;;2.85;;
54388;SDS011;40975;50.390;8.640;2023-05-07T06:14:29;3.13;;;2.67;;
54388;SDS011;40975;50.390;8.640;2023-05-07T06:16:55;4.68;;;3.00;;
54388;SDS011;40975;50.390;8.640;2023-05-07T06:19:20;4.32;;;3.15;;
54388;SDS011;40975;50.390;8.640;2023-05-07T06:21:49;4.90;;;3.15;;
54388;SDS011;40975;50.390;8.640;2023-05-07T06:24:15;3.80;;;2.80;;
54388;SDS011;40975;50.390;8.640;2023-05-07T06:26:40;5.28;;;3.10;;
54388;SDS011;40975;50.390;8.640;2023-05-07T06:29:06;4.85;;;3.05;;
54388;SDS011;40975;50.390;8.640;2023-05-07T06:31:31;5.18;;;3.60;;
54388;SDS011;40975;50.390;8.640;2023-05-07T06:34:01;4.38;;;3.70;;
54388;SDS011;40975;50.390;8.640;2023-05-07T06:36:32;4.20;;;3.53;;
54388;SDS011;40975;50.390;8.640;2023-05-07T06:39:00;4.15;;;3.60;;
54388;SDS011;40975;50.390;8.640;2023-05-07T06:41:25;4.68;;;3.72;;
54388;SDS011;40975;50.390;8.640;2023-05-07T06:43:51;5.50;;;3.88;;
54388;SDS011;40975;50.390;8.640;2023-05-07T06:46:37;6.07;;;3.72;;
54388;SDS011;40975;50.390;8.640;2023-05-07T06:49:04;5.30;;;3.78;;
54388;SDS011;40975;50.390;8.640;2023-05-07T06:51:30;4.80;;;3.58;;
54388;SDS011;40975;50.390;8.640;2023-05-07T06:54:00;6.18;;;3.55;;
54388;SDS011;40975;50.390;8.640;2023-05-07T06:56:25;5.05;;;3.70;;
54388;SDS011;40975;50.390;8.640;2023-05-07T06:58:50;4.95;;;3.97;;
54388;SDS011;40975;50.390;8.640;2023-05-07T07:01:16;5.65;;;3.92;;
54388;SDS011;40975;50.390;8.640;2023-05-07T07:03:43;4.85;;;3.88;;
54388;SDS011;40975;50.390;8.640;2023-05-07T07:06:08;6.82;;;3.70;;
54388;SDS011;40975;50.390;8.640;2023-05-07T07:08:33;5.63;;;3.92;;
54388;SDS011;40975;50.390;8.640;2023-05-07T07:10:59;6.95;;;4.47;;
54388;SDS011;40975;50.390;8.640;2023-05-07T07:13:25;6.50;;;4.68;;
54388;SDS011;40975;50.390;8.640;2023-05-07T07:15:51;5.80;;;4.20;;
54388;SDS011;40975;50.390;8.640;2023-05-07T07:18:17;4.93;;;4.18;;
54388;SDS011;40975;50.390;8.640;2023-05-07T07:20:44;6.65;;;4.78;;
54388;SDS011;40975;50.390;8.640;2023-05-07T07:23:09;6.20;;;4.05;;
54388;SDS011;40975;50.390;8.640;2023-05-07T07:25:35;6.05;;;4.50;;
54388;SDS011;40975;50.390;8.640;2023-05-07T07:28:00;9.10;;;5.07;;
54388;SDS011;40975;50.390;8.640;2023-05-07T07:30:27;5.18;;;3.90;;
54388;SDS011;40975;50.390;8.640;2023-05-07T07:32:53;6.68;;;4.25;;
54388;SDS011;40975;50.390;8.640;2023-05-07T07:35:19;5.18;;;4.00;;
54388;SDS011;40975;50.390;8.640;2023-05-07T07:37:46;4.57;;;3.58;;
54388;SDS011;40975;50.390;8.640;2023-05-07T07:40:13;5.28;;;4.28;;
54388;SDS011;40975;50.390;8.640;2023-05-07T07:42:39;5.57;;;4.32;;
54388;SDS011;40975;50.390;8.640;2023-05-07T07:45:06;5.43;;;3.63;;
54388;SDS011;40975;50.390;8.640;2023-05-07T07:47:36;5.13;;;4.43;;
54388;SDS011;40975;50.390;8.640;2023-05-07T07:50:02;5.20;;;4.28;;
54388;SDS011;40975;50.390;8.640;2023-05-07T07:52:28;4.40;;;3.83;;
54388;SDS011;40975;50.390;8.640;2023-05-07T07:54:53;4.45;;;3.53;;
54388;SDS011;40975;50.390;8.640;2023-05-07T07:57:20;5.78;;;4.60;;
54388;SDS011;40975;50.390;8.640;2023-05-07T07:59:46;5.78;;;4.10;;
54388;SDS011;40975;50.390;8.640;2023-05-07T08:02:13;5.63;;;4.18;;
54388;SDS011;40975;50.390;8.640;2023-05-07T08:04:38;5.00;;;3.88;;
54388;SDS011;40975;50.390;8.640;2023-05-07T08:07:06;4.30;;;3.60;;
54388;SDS011;40975;50.390;8.640;2023-05-07T08:09:34;5.35;;;4.00;;
54388;SDS011;40975;50.390;8.640;2023-05-07T08:12:01;4.90;;;4.20;;
54388;SDS011;40975;50.390;8.640;2023-05-07T08:14:28;5.47;;;3.80;;
54388;SDS011;40975;50.390;8.640;2023-05-07T08:16:53;5.85;;;4.10;;
54388;SDS011;40975;50.390;8.640;2023-05-07T08:19:19;4.57;;;3.65;;
54388;SDS011;40975;50.390;8.640;2023-05-07T08:21:45;6.70;;;3.83;;
54388;SDS011;40975;50.390;8.640;2023-05-07T08:24:16;4.47;;;3.30;;
54388;SDS011;40975;50.390;8.640;2023-05-07T08:26:43;4.40;;;4.00;;
54388;SDS011;40975;50.390;8.640;2023-05-07T08:29:10;5.20;;;3.90;;
54388;SDS011;40975;50.390;8.640;2023-05-07T08:31:35;6.00;;;3.80;;
54388;SDS011;40975;50.390;8.640;2023-05-07T08:34:00;4.07;;;3.65;;
54388;SDS011;40975;50.390;8.640;2023-05-07T08:36:26;6.13;;;4.03;;
54388;SDS011;40975;50.390;8.640;2023-05-07T08:38:52;4.45;;;4.05;;
54388;SDS011;40975;50.390;8.640;2023-05-07T08:41:18;7.88;;;4.30;;
54388;SDS011;40975;50.390;8.640;2023-05-07T08:43:46;4.00;;;3.50;;
54388;SDS011;40975;50.390;8.640;2023-05-07T08:46:18;4.80;;;4.00;;
54388;SDS011;40975;50.390;8.640;2023-05-07T08:48:45;4.40;;;3.60;;
54388;SDS011;40975;50.390;8.640;2023-05-07T08:51:15;4.47;;;3.80;;
54388;SDS011;40975;50.390;8.640;2023-05-07T08:53:42;5.35;;;3.60;;
54388;SDS011;40975;50.390;8.640;2023-05-07T08:56:10;4.22;;;3.60;;
54388;SDS011;40975;50.390;8.640;2023-05-07T08:58:36;4.53;;;3.88;;
54388;SDS011;40975;50.390;8.640;2023-05-07T09:01:07;4.22;;;3.50;;
54388;SDS011;40975;50.390;8.640;2023-05-07T09:03:34;4.40;;;4.00;;
54388;SDS011;40975;50.390;8.640;2023-05-07T09:06:00;4.50;;;4.03;;
54388;SDS011;40975;50.390;8.640;2023-05-07T09:08:27;4.22;;;3.83;;
54388;SDS011;40975;50.390;8.640;2023-05-07T09:10:55;6.53;;;3.60;;
54388;SDS011;40975;50.390;8.640;2023-05-07T09:13:21;3.60;;;3.30;;
54388;SDS011;40975;50.390;8.640;2023-05-07T09:15:47;2.72;;;2.53;;
54388;SDS011;40975;50.390;8.640;2023-05-07T09:18:13;2.80;;;2.60;;
54388;SDS011;40975;50.390;8.640;2023-05-07T09:20:39;2.72;;;2.50;;
54388;SDS011;40975;50.390;8.640;2023-05-07T09:23:06;3.40;;;3.10;;
54388;SDS011;40975;50.390;8.640;2023-05-07T09:25:34;3.40;;;3.10;;
54388;SDS011;40975;50.390;8.640;2023-05-07T09:28:05;3.50;;;2.67;;
54388;SDS011;40975;50.390;8.640;2023-05-07T09:30:35;2.70;;;2.50;;
54388;SDS011;40975;50.390;8.640;2023-05-07T09:33:03;2.88;;;2.67;;
54388;SDS011;40975;50.390;8.640;2023-05-07T09:35:30;3.63;;;2.63;;
54388;SDS011;40975;50.390;8.640;2023-05-07T09:38:00;3.25;;;2.92;;
54388;SDS011;40975;50.390;8.640;2023-05-07T09:40:27;3.60;;;3.13;;
54388;SDS011;40975;50.390;8.640;2023-05-07T09:42:56;6.93;;;2.97;;
54388;SDS011;40975;50.390;8.640;2023-05-07T09:45:24;3.30;;;2.90;;
54388;SDS011;40975;50.390;8.640;2023-05-07T09:47:51;3.00;;;2.80;;
54388;SDS011;40975;50.390;8.640;2023-05-07T09:50:19;3.25;;;2.88;;
54388;SDS011;40975;50.390;8.640;2023-05-07T09:52:50;3.58;;;3.28;;
54388;SDS011;40975;50.390;8.640;2023-05-07T09:55:17;3.45;;;3.15;;
54388;SDS011;40975;50.390;8.640;2023-05-07T09:57:44;4.55;;;3.63;;
54388;SDS011;40975;50.390;8.640;2023-05-07T10:00:11;3.95;;;3.03;;
54388;SDS011;40975;50.390;8.640;2023-05-07T10:02:49;5.53;;;2.88;;
54388;SDS011;40975;50.390;8.640;2023-05-07T10:05:21;4.47;;;4.07;;
54388;SDS011;40975;50.390;8.640;2023-05-07T10:07:48;3.60;;;3.20;;
54388;SDS011;40975;50.390;8.640;2023-05-07T10:10:15;3.35;;;3.05;;
54388;SDS011;40975;50.390;8.640;2023-05-07T10:12:43;3.47;;;3.17;;
54388;SDS011;40975;50.390;8.640;2023-05-07T10:15:23;3.47;;;3.17;;
54388;SDS011;40975;50.390;8.640;2023-05-07T10:17:52;3.60;;;3.17;;
54388;SDS011;40975;50.390;8.640;2023-05-07T10:20:19;3.50;;;3.20;;
54388;SDS011;40975;50.390;8.640;2023-05-07T10:22:46;4.28;;;3.47;;
54388;SDS011;40975;50.390;8.640;2023-05-07T10:25:17;4.10;;;3.70;;
54388;SDS011;40975;50.390;8.640;2023-05-07T10:27:49;4.03;;;3.20;;
54388;SDS011;40975;50.390;8.640;2023-05-07T10:30:24;3.67;;;3.38;;
54388;SDS011;40975;50.390;8.640;2023-05-07T10:32:55;3.03;;;2.70;;
54388;SDS011;40975;50.390;8.640;2023-05-07T10:35:31;3.83;;;3.53;;
54388;SDS011;40975;50.390;8.640;2023-05-07T10:38:02;4.28;;;3.88;;
54388;SDS011;40975;50.390;8.640;2023-05-07T10:40:31;4.15;;;3.85;;
54388;SDS011;40975;50.390;8.640;2023-05-07T10:45:34;4.22;;;3.83;;
54388;SDS011;40975;50.390;8.640;2023-05-07T10:48:05;5.78;;;3.78;;
54388;SDS011;40975;50.390;8.640;2023-05-07T10:50:47;5.45;;;3.92;;
54388;SDS011;40975;50.390;8.640;2023-05-07T10:55:43;5.75;;;3.83;;
54388;SDS011;40975;50.390;8.640;2023-05-07T11:00:47;4.45;;;4.05;;
54388;SDS011;40975;50.390;8.640;2023-05-07T11:03:24;5.35;;;4.10;;
54388;SDS011;40975;50.390;8.640;2023-05-07T11:06:08;4.20;;;3.80;;
54388;SDS011;40975;50.390;8.640;2023-05-07T11:11:46;4.75;;;3.67;;
54388;SDS011;40975;50.390;8.640;2023-05-07T11:17:15;5.53;;;4.20;;
54388;SDS011;40975;50.390;8.640;2023-05-07T11:19:47;4.38;;;3.97;;
54388;SDS011;40975;50.390;8.640;2023-05-07T11:22:36;4.35;;;3.75;;
54388;SDS011;40975;50.390;8.640;2023-05-07T11:25:10;4.72;;;3.90;;
54388;SDS011;40975;50.390;8.640;2023-05-07T11:27:36;4.15;;;3.40;;
54388;SDS011;40975;50.390;8.640;2023-05-07T11:30:01;4.32;;;3.92;;
54388;SDS011;40975;50.390;8.640;2023-05-07T11:32:28;4.38;;;3.97;;
54388;SDS011;40975;50.390;8.640;2023-05-07T11:34:55;4.68;;;4.20;;
54388;SDS011;40975;50.390;8.640;2023-05-07T11:37:22;4.95;;;4.30;;
54388;SDS011;40975;50.390;8.640;2023-05-07T11:40:08;4.25;;;3.70;;
54388;SDS011;40975;50.390;8.640;2023-05-07T11:42:36;4.85;;;3.88;;
54388;SDS011;40975;50.390;8.640;2023-05-07T11:45:02;4.55;;;3.67;;
54388;SDS011;40975;50.390;8.640;2023-05-07T11:47:32;4.38;;;3.60;;
54388;SDS011;40975;50.390;8.640;2023-05-07T11:50:02;5.75;;;3.90;;
54388;SDS011;40975;50.390;8.640;2023-05-07T11:52:28;3.97;;;3.53;;
54388;SDS011;40975;50.390;8.640;2023-05-07T11:54:55;4.25;;;3.53;;
54388;SDS011;40975;50.390;8.640;2023-05-07T11:57:25;4.80;;;4.03;;
54388;SDS011;40975;50.390;8.640;2023-05-07T11:59:54;3.95;;;3.50;;
54388;SDS011;40975;50.390;8.640;2023-05-07T12:02:23;4.43;;;3.85;;
54388;SDS011;40975;50.390;8.640;2023-05-07T12:04:50;3.85;;;3.42;;
54388;SDS011;40975;50.390;8.640;2023-05-07T12:07:18;5.05;;;3.60;;
54388;SDS011;40975;50.390;8.640;2023-05-07T12:09:44;4.93;;;3.42;;
54388;SDS011;40975;50.390;8.640;2023-05-07T12:12:10;3.78;;;3.47;;
54388;SDS011;40975;50.390;8.640;2023-05-07T12:14:39;4.90;;;4.38;;
54388;SDS011;40975;50.390;8.640;2023-05-07T12:17:05;4.53;;;4.10;;
54388;SDS011;40975;50.390;8.640;2023-05-07T12:19:33;4.63;;;4.00;;
54388;SDS011;40975;50.390;8.640;2023-05-07T12:21:59;7.60;;;3.90;;
54388;SDS011;40975;50.390;8.640;2023-05-07T12:24:27;4.10;;;3.50;;
54388;SDS011;40975;50.390;8.640;2023-05-07T12:26:52;3.92;;;3.00;;
54388;SDS011;40975;50.390;8.640;2023-05-07T12:29:21;4.43;;;3.38;;
54388;SDS011;40975;50.390;8.640;2023-05-07T12:31:47;4.43;;;3.20;;
54388;SDS011;40975;50.390;8.640;2023-05-07T12:34:14;3.45;;;2.92;;
54388;SDS011;40975;50.390;8.640;2023-05-07T12:36:40;3.55;;;3.10;;
54388;SDS011;40975;50.390;8.640;2023-05-07T12:39:06;3.53;;;2.92;;
54388;SDS011;40975;50.390;8.640;2023-05-07T12:41:53;4.05;;;3.13;;
54388;SDS011;40975;50.390;8.640;2023-05-07T12:44:21;4.93;;;3.25;;
54388;SDS011;40975;50.390;8.640;2023-05-07T12:46:48;4.07;;;3.10;;
54388;SDS011;40975;50.390;8.640;2023-05-07T12:49:13;2.65;;;2.45;;
54388;SDS011;40975;50.390;8.640;2023-05-07T12:51:38;3.15;;;2.60;;
54388;SDS011;40975;50.390;8.640;2023-05-07T12:54:04;2.72;;;2.33;;
54388;SDS011;40975;50.390;8.640;2023-05-07T12:56:35;4.22;;;2.80;;
54388;SDS011;40975;50.390;8.640;2023-05-07T12:59:01;2.83;;;2.55;;
54388;SDS011;40975;50.390;8.640;2023-05-07T13:01:29;3.85;;;2.60;;
54388;SDS011;40975;50.390;8.640;2023-05-07T13:04:01;2.25;;;2.05;;
54388;SDS011;40975;50.390;8.640;2023-05-07T13:06:29;2.20;;;2.00;;
54388;SDS011;40975;50.390;8.640;2023-05-07T13:08:56;2.20;;;2.00;;
54388;SDS011;40975;50.390;8.640;2023-05-07T13:11:21;3.08;;;2.50;;
54388;SDS011;40975;50.390;8.640;2023-05-07T13:13:47;3.45;;;2.45;;
54388;SDS011;40975;50.390;8.640;2023-05-07T13:16:12;4.53;;;2.88;;
54388;SDS011;40975;50.390;8.640;2023-05-07T13:18:38;3.90;;;2.65;;
54388;SDS011;40975;50.390;8.640;2023-05-07T13:21:05;4.13;;;2.70;;
54388;SDS011;40975;50.390;8.640;2023-05-07T13:23:30;3.10;;;2.40;;
54388;SDS011;40975;50.390;8.640;2023-05-07T13:25:56;3.30;;;2.72;;
54388;SDS011;40975;50.390;8.640;2023-05-07T13:28:22;3.72;;;1.88;;
54388;SDS011;40975;50.390;8.640;2023-05-07T13:30:51;2.60;;;2.40;;
54388;SDS011;40975;50.390;8.640;2023-05-07T13:33:17;2.30;;;2.10;;
54388;SDS011;40975;50.390;8.640;2023-05-07T13:35:42;2.38;;;2.17;;
54388;SDS011;40975;50.390;8.640;2023-05-07T13:38:08;2.88;;;2.58;;
54388;SDS011;40975;50.390;8.640;2023-05-07T13:40:33;3.53;;;2.30;;
54388;SDS011;40975;50.390;8.640;2023-05-07T13:42:59;2.53;;;1.90;;
54388;SDS011;40975;50.390;8.640;2023-05-07T13:45:25;2.40;;;2.00;;
54388;SDS011;40975;50.390;8.640;2023-05-07T13:47:51;2.83;;;2.50;;
54388;SDS011;40975;50.390;8.640;2023-05-07T13:50:17;3.15;;;2.40;;
54388;SDS011;40975;50.390;8.640;2023-05-07T13:52:43;2.40;;;2.20;;
54388;SDS011;40975;50.390;8.640;2023-05-07T13:55:15;1.92;;;1.75;;
54388;SDS011;40975;50.390;8.640;2023-05-07T13:57:41;4.20;;;2.35;;
54388;SDS011;40975;50.390;8.640;2023-05-07T14:00:06;2.47;;;2.20;;
54388;SDS011;40975;50.390;8.640;2023-05-07T14:02:40;3.75;;;2.25;;
54388;SDS011;40975;50.390;8.640;2023-05-07T14:05:06;3.47;;;2.40;;
54388;SDS011;40975;50.390;8.640;2023-05-07T14:07:31;3.05;;;2.15;;
54388;SDS011;40975;50.390;8.640;2023-05-07T14:09:57;1.85;;;1.67;;
54388;SDS011;40975;50.390;8.640;2023-05-07T14:12:22;2.15;;;1.90;;
54388;SDS011;40975;50.390;8.640;2023-05-07T14:14:48;2.50;;;1.60;;
54388;SDS011;40975;50.390;8.640;2023-05-07T14:17:15;2.08;;;1.85;;
54388;SDS011;40975;50.390;8.640;2023-05-07T14:19:41;2.95;;;2.10;;
54388;SDS011;40975;50.390;8.640;2023-05-07T14:22:06;2.92;;;1.80;;
54388;SDS011;40975;50.390;8.640;2023-05-07T14:24:31;2.20;;;1.70;;
54388;SDS011;40975;50.390;8.640;2023-05-07T14:26:57;3.45;;;2.08;;
54388;SDS011;40975;50.390;8.640;2023-05-07T14:29:22;1.70;;;1.50;;
54388;SDS011;40975;50.390;8.640;2023-05-07T14:31:48;3.67;;;3.28;;
54388;SDS011;40975;50.390;8.640;2023-05-07T14:34:13;4.35;;;3.95;;
54388;SDS011;40975;50.390;8.640;2023-05-07T14:36:38;1.95;;;1.52;;
54388;SDS011;40975;50.390;8.640;2023-05-07T14:39:03;2.53;;;1.75;;
54388;SDS011;40975;50.390;8.640;2023-05-07T14:41:29;1.65;;;1.50;;
54388;SDS011;40975;50.390;8.640;2023-05-07T14:43:54;3.58;;;1.70;;
54388;SDS011;40975;50.390;8.640;2023-05-07T14:46:20;2.15;;;1.80;;
54388;SDS011;40975;50.390;8.640;2023-05-07T14:48:45;1.88;;;1.75;;
54388;SDS011;40975;50.390;8.640;2023-05-07T14:51:11;2.63;;;1.73;;
54388;SDS011;40975;50.390;8.640;2023-05-07T14:53:38;2.05;;;1.77;;
54388;SDS011;40975;50.390;8.640;2023-05-07T14:56:04;2.45;;;1.52;;
54388;SDS011;40975;50.390;8.640;2023-05-07T14:58:30;1.88;;;1.67;;
54388;SDS011;40975;50.390;8.640;2023-05-07T15:00:56;2.25;;;1.50;;